Time;durP1;ratioP1;P1;durP2;ratioP2;P2;SDS_P1;SDS_P2;PMS_P1;PMS_P2;Temp;Humidity;BMP_temperature;BMP_pressure;BME280_temperature;BME280_humidity;BME280_pressure;Samples;Min_cycle;Max_cycle;Signal;HPM_P1;HPM_P2
2022/03/01 00:01:44;;;;;;;19.10;14.53;;;;;;;;;;6270653;28;20231;-66
2022/03/01 00:05:06;;;;;;;18.57;14.57;;;;;;;;;;6268149;28;20223;-68
2022/03/01 00:08:26;;;;;;;17.67;14.43;;;;;;;;;;6258847;28;20228;-67
2022/03/01 00:11:47;;;;;;;19.00;15.20;;;;;;;;;;6267865;28;20222;-67
2022/03/01 00:15:10;;;;;;;19.53;14.73;;;;;;;;;;6269858;28;20232;-67
2022/03/01 00:18:31;;;;;;;15.87;13.43;;;;;;;;;;6263919;28;20227;-65
2022/03/01 00:21:51;;;;;;;17.73;14.50;;;;;;;;;;6271220;28;20235;-67
2022/03/01 00:25:12;;;;;;;16.33;13.00;;;;;;;;;;6267828;28;20227;-66
2022/03/01 00:28:33;;;;;;;16.13;13.67;;;;;;;;;;6261345;28;21174;-66
2022/03/01 00:31:56;;;;;;;18.83;14.43;;;;;;;;;;6272820;28;20231;-67
2022/03/01 00:35:18;;;;;;;20.03;15.10;;;;;;;;;;6273977;28;20239;-66
2022/03/01 00:38:39;;;;;;;19.07;14.47;;;;;;;;;;6278162;28;20227;-66
2022/03/01 00:42:00;;;;;;;17.20;14.97;;;;;;;;;;6275053;28;20227;-66
2022/03/01 00:45:21;;;;;;;16.30;12.93;;;;;;;;;;6270252;28;20231;-66
2022/03/01 00:48:43;;;;;;;17.67;13.53;;;;;;;;;;6278141;28;20767;-65
2022/03/01 00:52:04;;;;;;;18.70;13.03;;;;;;;;;;6273458;28;20611;-66
2022/03/01 00:55:25;;;;;;;18.20;13.87;;;;;;;;;;6272675;28;20234;-66
2022/03/01 00:58:46;;;;;;;15.73;13.97;;;;;;;;;;6270754;28;20617;-66
2022/03/01 01:02:07;;;;;;;20.27;14.03;;;;;;;;;;6272204;28;20582;-67
2022/03/01 01:05:30;;;;;;;16.90;12.93;;;;;;;;;;6273803;28;20235;-66
2022/03/01 01:08:51;;;;;;;17.33;13.63;;;;;;;;;;6271701;28;20259;-65
2022/03/01 01:12:12;;;;;;;15.53;12.50;;;;;;;;;;6275392;28;20223;-66
2022/03/01 01:15:33;;;;;;;17.13;14.03;;;;;;;;;;6248401;28;20236;-65
2022/03/01 01:18:55;;;;;;;18.20;14.30;;;;;;;;;;6270136;28;20231;-66
2022/03/01 01:25:55;;;;;;;16.13;12.67;;;;;;;;;;6262140;28;20224;-65
2022/03/01 01:29:16;;;;;;;17.90;12.60;;;;;;;;;;6276436;28;20232;-65
2022/03/01 01:32:37;;;;;;;17.70;14.47;;;;;;;;;;6252395;28;20228;-65
2022/03/01 01:35:59;;;;;;;18.53;12.77;;;;;;;;;;6251769;28;20227;-66
2022/03/01 01:39:21;;;;;;;15.17;11.87;;;;;;;;;;6272383;28;20609;-65
2022/03/01 01:42:43;;;;;;;17.57;12.30;;;;;;;;;;6273087;28;20231;-67
2022/03/01 01:46:04;;;;;;;17.43;12.83;;;;;;;;;;6274186;28;20255;-66
2022/03/01 01:49:24;;;;;;;18.83;14.07;;;;;;;;;;6278195;28;20231;-66
2022/03/01 01:52:46;;;;;;;15.93;11.63;;;;;;;;;;6274065;28;20231;-66
2022/03/01 01:56:08;;;;;;;15.03;12.93;;;;;;;;;;6270890;28;20322;-66
2022/03/01 01:59:29;;;;;;;18.03;12.93;;;;;;;;;;6274829;28;20612;-66
2022/03/01 02:02:50;;;;;;;14.83;12.53;;;;;;;;;;6275634;28;20319;-66
2022/03/01 02:06:11;;;;;;;17.03;13.30;;;;;;;;;;6273539;28;20834;-65
2022/03/01 02:09:32;;;;;;;17.80;13.13;;;;;;;;;;6273987;28;20235;-65
2022/03/01 02:12:56;;;;;;;15.67;11.77;;;;;;;;;;6270214;28;20231;-66
2022/03/01 02:16:17;;;;;;;13.43;12.03;;;;;;;;;;6274897;28;20239;-66
2022/03/01 02:19:38;;;;;;;17.77;12.57;;;;;;;;;;6273707;28;20517;-66
2022/03/01 02:23:01;;;;;;;14.63;12.03;;;;;;;;;;6275117;28;20235;-66
2022/03/01 02:26:22;;;;;;;16.10;12.37;;;;;;;;;;6270814;28;20240;-65
2022/03/01 02:29:43;;;;;;;14.27;12.33;;;;;;;;;;6276829;28;20746;-65
2022/03/01 02:33:04;;;;;;;18.30;12.03;;;;;;;;;;6275994;28;20274;-65
2022/03/01 02:36:25;;;;;;;15.13;12.13;;;;;;;;;;6275058;28;20254;-65
2022/03/01 02:39:47;;;;;;;14.87;11.83;;;;;;;;;;6270421;28;20219;-66
2022/03/01 02:43:10;;;;;;;12.90;11.53;;;;;;;;;;6271645;28;20672;-66
2022/03/01 02:46:30;;;;;;;15.17;12.43;;;;;;;;;;6272320;28;20227;-66
2022/03/01 02:49:52;;;;;;;16.40;12.23;;;;;;;;;;6267367;28;20220;-66
2022/03/01 02:53:13;;;;;;;15.07;12.67;;;;;;;;;;6273064;28;20231;-67
2022/03/01 02:56:35;;;;;;;15.77;12.70;;;;;;;;;;6261651;28;20227;-65
2022/03/01 02:59:56;;;;;;;14.57;12.17;;;;;;;;;;6276178;28;20235;-66
2022/03/01 03:03:17;;;;;;;16.97;13.07;;;;;;;;;;6277146;28;20519;-66
2022/03/01 03:06:38;;;;;;;19.43;14.00;;;;;;;;;;6270741;28;20274;-66
2022/03/01 03:09:59;;;;;;;16.77;13.13;;;;;;;;;;6270509;28;20228;-65
2022/03/01 03:13:21;;;;;;;16.53;13.33;;;;;;;;;;6268625;28;20223;-66
2022/03/01 03:16:42;;;;;;;15.60;11.53;;;;;;;;;;6270683;28;20231;-66
2022/03/01 03:20:03;;;;;;;12.97;11.10;;;;;;;;;;6276432;28;20541;-66
2022/03/01 03:23:24;;;;;;;15.40;11.53;;;;;;;;;;6277714;28;20224;-66
2022/03/01 03:26:45;;;;;;;14.13;11.47;;;;;;;;;;6268944;28;20366;-66
2022/03/01 03:30:09;;;;;;;15.73;11.47;;;;;;;;;;6278108;28;20235;-65
2022/03/01 03:33:30;;;;;;;14.87;11.23;;;;;;;;;;6275988;28;22292;-66
2022/03/01 03:36:52;;;;;;;17.73;12.40;;;;;;;;;;6271656;28;20881;-66
2022/03/01 03:40:14;;;;;;;14.63;11.20;;;;;;;;;;6271443;28;20722;-65
2022/03/01 03:43:34;;;;;;;14.83;11.43;;;;;;;;;;6269154;28;20232;-66
2022/03/01 03:46:57;;;;;;;16.80;11.90;;;;;;;;;;6275142;28;20231;-67
2022/03/01 03:50:18;;;;;;;19.10;11.73;;;;;;;;;;6275864;28;20529;-66
2022/03/01 03:53:39;;;;;;;16.90;11.67;;;;;;;;;;6274069;28;20261;-65
2022/03/01 03:57:07;;;;;;;16.57;11.23;;;;;;;;;;6271568;28;20625;-66
2022/03/01 04:00:28;;;;;;;18.20;13.33;;;;;;;;;;6271697;28;20228;-66
2022/03/01 04:03:50;;;;;;;16.97;12.03;;;;;;;;;;6278495;28;20656;-67
2022/03/01 04:07:11;;;;;;;17.30;11.53;;;;;;;;;;6274992;28;20862;-66
2022/03/01 04:10:32;;;;;;;17.03;12.10;;;;;;;;;;6273693;28;20266;-66
2022/03/01 04:13:53;;;;;;;17.37;12.50;;;;;;;;;;6278103;28;20223;-67
2022/03/01 04:17:14;;;;;;;13.97;10.77;;;;;;;;;;6276047;28;20846;-66
2022/03/01 04:20:36;;;;;;;16.67;11.90;;;;;;;;;;6272225;28;20261;-65
2022/03/01 04:23:57;;;;;;;14.77;12.10;;;;;;;;;;6273336;28;20242;-66
2022/03/01 04:30:57;;;;;;;14.17;11.63;;;;;;;;;;6212883;23;20229;-66
2022/03/01 04:34:19;;;;;;;15.47;11.47;;;;;;;;;;6188996;28;20229;-65
2022/03/01 04:37:43;;;;;;;15.00;11.33;;;;;;;;;;6168583;28;20238;-66
2022/03/01 04:41:03;;;;;;;16.67;11.40;;;;;;;;;;6164604;28;20619;-66
2022/03/01 04:44:24;;;;;;;15.13;12.03;;;;;;;;;;6174313;28;20238;-66
2022/03/01 04:47:45;;;;;;;14.73;10.17;;;;;;;;;;6169218;28;20763;-65
2022/03/01 04:51:07;;;;;;;16.47;11.90;;;;;;;;;;6190175;28;20233;-65
2022/03/01 04:54:29;;;;;;;16.73;11.73;;;;;;;;;;6190927;28;20230;-65
2022/03/01 04:57:50;;;;;;;19.60;13.63;;;;;;;;;;6187513;28;20226;-65
2022/03/01 05:01:10;;;;;;;17.33;12.33;;;;;;;;;;6188615;28;20230;-66
2022/03/01 05:04:31;;;;;;;17.27;13.47;;;;;;;;;;6190215;28;20233;-65
2022/03/01 05:07:52;;;;;;;15.30;12.23;;;;;;;;;;6207513;28;20233;-66
2022/03/01 05:11:14;;;;;;;16.20;11.87;;;;;;;;;;6214772;28;20233;-65
2022/03/01 05:14:35;;;;;;;17.77;13.57;;;;;;;;;;6210094;28;20308;-66
2022/03/01 05:17:57;;;;;;;20.90;13.00;;;;;;;;;;6212268;28;20472;-65
2022/03/01 05:21:18;;;;;;;17.70;13.57;;;;;;;;;;6211310;28;20229;-66
2022/03/01 05:24:39;;;;;;;16.47;12.27;;;;;;;;;;6193133;28;20233;-66
2022/03/01 05:28:01;;;;;;;16.57;11.30;;;;;;;;;;6205979;28;20522;-65
2022/03/01 05:31:22;;;;;;;16.03;12.77;;;;;;;;;;6210749;28;20221;-66
2022/03/01 05:34:43;;;;;;;16.13;12.17;;;;;;;;;;6214086;28;20499;-65
2022/03/01 05:38:07;;;;;;;21.63;13.13;;;;;;;;;;6212311;28;20274;-66
2022/03/01 05:41:28;;;;;;;16.40;13.03;;;;;;;;;;6209646;28;20234;-66
2022/03/01 05:44:50;;;;;;;16.37;12.37;;;;;;;;;;6206765;28;20229;-66
2022/03/01 05:48:11;;;;;;;15.37;12.17;;;;;;;;;;6212655;28;20225;-66
2022/03/01 05:51:32;;;;;;;18.63;14.30;;;;;;;;;;6213153;28;20685;-66
2022/03/01 05:54:53;;;;;;;15.43;12.37;;;;;;;;;;6213133;28;20237;-66
2022/03/01 05:58:14;;;;;;;15.47;11.77;;;;;;;;;;6211122;28;20269;-66
2022/03/01 06:01:36;;;;;;;18.27;12.73;;;;;;;;;;6209962;28;20225;-66
2022/03/01 06:04:57;;;;;;;16.03;11.97;;;;;;;;;;6212102;28;20282;-66
2022/03/01 06:08:18;;;;;;;18.33;11.43;;;;;;;;;;6208237;28;20229;-65
2022/03/01 06:11:38;;;;;;;15.77;12.43;;;;;;;;;;6207498;28;20222;-65
2022/03/01 06:14:59;;;;;;;14.33;11.23;;;;;;;;;;6208277;28;20659;-65
2022/03/01 06:18:21;;;;;;;15.60;12.50;;;;;;;;;;6211356;28;20244;-66
2022/03/01 06:21:42;;;;;;;15.30;11.13;;;;;;;;;;6212849;28;20240;-66
2022/03/01 06:25:03;;;;;;;15.93;12.73;;;;;;;;;;6208483;28;20222;-65
2022/03/01 06:28:24;;;;;;;18.13;13.13;;;;;;;;;;6207638;28;20233;-65
2022/03/01 06:31:45;;;;;;;17.00;12.97;;;;;;;;;;6205570;28;20229;-66
2022/03/01 06:35:09;;;;;;;17.23;14.33;;;;;;;;;;6209314;28;20269;-66
2022/03/01 06:38:29;;;;;;;19.40;14.10;;;;;;;;;;6207904;28;20320;-65
2022/03/01 06:41:50;;;;;;;19.80;13.63;;;;;;;;;;6198499;28;20221;-68
2022/03/01 06:45:11;;;;;;;20.33;13.07;;;;;;;;;;6199734;28;20229;-66
2022/03/01 06:48:32;;;;;;;19.07;12.83;;;;;;;;;;6203052;28;20324;-66
2022/03/01 06:51:54;;;;;;;21.60;13.90;;;;;;;;;;6206755;28;20506;-65
2022/03/01 06:55:16;;;;;;;17.83;13.17;;;;;;;;;;6207029;28;20230;-66
2022/03/01 06:58:38;;;;;;;20.00;14.73;;;;;;;;;;6207941;28;20320;-66
2022/03/01 07:01:59;;;;;;;20.13;15.20;;;;;;;;;;6195201;28;20222;-65
2022/03/01 07:05:20;;;;;;;15.00;11.93;;;;;;;;;;6207270;28;20685;-66
2022/03/01 07:08:44;;;;;;;18.60;13.23;;;;;;;;;;6206359;28;20229;-67
2022/03/01 07:12:05;;;;;;;17.17;13.67;;;;;;;;;;6206666;28;20332;-66
2022/03/01 07:15:26;;;;;;;18.77;13.67;;;;;;;;;;6202858;28;20236;-66
2022/03/01 07:18:47;;;;;;;20.07;15.20;;;;;;;;;;6209889;28;20253;-66
2022/03/01 07:22:07;;;;;;;16.50;13.27;;;;;;;;;;6205856;28;20257;-66
2022/03/01 07:25:29;;;;;;;16.57;13.63;;;;;;;;;;6206157;28;20238;-64
2022/03/01 07:28:50;;;;;;;24.87;14.47;;;;;;;;;;6196345;28;20643;-66
2022/03/01 07:32:14;;;;;;;22.53;15.53;;;;;;;;;;6206838;28;20678;-65
2022/03/01 07:35:35;;;;;;;23.07;15.50;;;;;;;;;;6207887;28;20538;-66
2022/03/01 07:38:55;;;;;;;20.40;14.57;;;;;;;;;;6204343;28;20233;-66
2022/03/01 07:42:18;;;;;;;22.80;14.97;;;;;;;;;;6202553;28;20635;-66
2022/03/01 07:45:39;;;;;;;17.80;13.33;;;;;;;;;;6203275;28;20228;-67
2022/03/01 07:49:00;;;;;;;18.93;13.53;;;;;;;;;;6205935;28;20512;-66
2022/03/01 07:52:21;;;;;;;18.77;15.00;;;;;;;;;;6206684;28;20371;-66
2022/03/01 07:55:42;;;;;;;19.00;14.43;;;;;;;;;;6203955;28;20240;-66
2022/03/01 07:59:04;;;;;;;17.60;12.97;;;;;;;;;;6200495;28;20240;-66
2022/03/01 08:02:25;;;;;;;19.90;14.23;;;;;;;;;;6204969;28;20237;-67
2022/03/01 08:05:46;;;;;;;20.77;15.80;;;;;;;;;;6208587;28;20221;-66
2022/03/01 08:09:06;;;;;;;21.03;14.13;;;;;;;;;;6200564;28;20233;-67
2022/03/01 08:12:27;;;;;;;18.07;14.23;;;;;;;;;;6197449;28;20237;-69
2022/03/01 08:15:50;;;;;;;16.87;13.90;;;;;;;;;;6196678;28;20233;-68
2022/03/01 08:19:10;;;;;;;22.50;16.40;;;;;;;;;;6204134;28;20229;-67
2022/03/01 08:22:31;;;;;;;19.73;16.37;;;;;;;;;;6207311;28;20256;-67
2022/03/01 08:25:53;;;;;;;19.67;16.60;;;;;;;;;;6202054;28;20229;-67
2022/03/01 08:29:14;;;;;;;21.70;15.87;;;;;;;;;;6203004;28;20320;-67
2022/03/01 08:32:36;;;;;;;23.23;17.23;;;;;;;;;;6201108;28;20256;-68
2022/03/01 08:35:57;;;;;;;20.17;14.90;;;;;;;;;;6204246;28;20233;-67
2022/03/01 08:39:18;;;;;;;26.00;16.13;;;;;;;;;;6201293;28;20739;-66
2022/03/01 08:42:39;;;;;;;19.13;14.60;;;;;;;;;;6203164;28;21799;-67
2022/03/01 08:46:00;;;;;;;20.17;16.50;;;;;;;;;;6208779;28;20245;-67
2022/03/01 08:49:22;;;;;;;20.40;15.93;;;;;;;;;;6212107;28;20229;-66
2022/03/01 08:52:43;;;;;;;22.47;15.63;;;;;;;;;;6204461;28;20233;-67
2022/03/01 08:56:04;;;;;;;19.43;15.07;;;;;;;;;;6206408;28;20228;-66
2022/03/01 08:59:25;;;;;;;19.07;15.20;;;;;;;;;;6208247;28;21171;-67
2022/03/01 09:02:46;;;;;;;24.80;17.83;;;;;;;;;;6205077;28;20520;-67
2022/03/01 09:06:09;;;;;;;20.33;14.53;;;;;;;;;;6206023;28;20229;-67
2022/03/01 09:09:30;;;;;;;18.07;14.10;;;;;;;;;;6209056;28;21901;-67
2022/03/01 09:12:52;;;;;;;19.83;16.73;;;;;;;;;;6207404;28;20517;-68
2022/03/01 09:16:13;;;;;;;19.63;15.27;;;;;;;;;;6204714;28;20229;-68
2022/03/01 09:19:34;;;;;;;19.93;15.90;;;;;;;;;;6208080;28;20347;-68
2022/03/01 09:22:57;;;;;;;19.03;14.87;;;;;;;;;;6203007;28;20324;-68
2022/03/01 09:26:18;;;;;;;21.77;16.17;;;;;;;;;;6205290;28;20237;-67
2022/03/01 09:29:40;;;;;;;19.50;14.53;;;;;;;;;;6205554;28;20221;-67
2022/03/01 09:33:00;;;;;;;18.77;14.90;;;;;;;;;;6205515;28;20229;-68
2022/03/01 09:36:22;;;;;;;16.83;13.03;;;;;;;;;;6207272;28;20276;-68
2022/03/01 09:39:44;;;;;;;24.33;15.03;;;;;;;;;;6204642;28;20241;-68
2022/03/01 09:43:06;;;;;;;19.13;13.93;;;;;;;;;;6194208;28;20245;-68
2022/03/01 09:46:26;;;;;;;18.23;14.43;;;;;;;;;;6199654;28;20260;-69
2022/03/01 09:49:47;;;;;;;19.40;15.73;;;;;;;;;;6203933;28;20233;-71
2022/03/01 09:53:08;;;;;;;16.63;14.20;;;;;;;;;;6200855;28;20237;-68
2022/03/01 09:56:32;;;;;;;15.50;13.30;;;;;;;;;;6200097;28;20237;-68
2022/03/01 09:59:54;;;;;;;19.53;14.30;;;;;;;;;;6207448;28;20229;-70
2022/03/01 10:03:16;;;;;;;15.87;12.87;;;;;;;;;;6181505;28;20229;-66
2022/03/01 10:06:41;;;;;;;18.57;15.10;;;;;;;;;;6202657;28;20221;-66
2022/03/01 10:10:07;;;;;;;17.07;13.13;;;;;;;;;;6202162;28;20233;-67
2022/03/01 10:13:31;;;;;;;18.20;13.60;;;;;;;;;;6204898;28;20241;-67
2022/03/01 10:16:51;;;;;;;15.17;13.17;;;;;;;;;;6198580;28;20241;-66
2022/03/01 10:20:13;;;;;;;16.63;13.93;;;;;;;;;;6204024;28;20233;-67
2022/03/01 10:23:34;;;;;;;18.00;12.23;;;;;;;;;;6198310;28;20233;-67
2022/03/01 10:26:56;;;;;;;15.67;13.80;;;;;;;;;;6201714;28;20233;-67
2022/03/01 10:30:25;;;;;;;15.13;13.00;;;;;;;;;;6191095;28;20253;-67
2022/03/01 10:33:56;;;;;;;15.87;14.23;;;;;;;;;;6201271;28;20228;-67
2022/03/01 10:37:26;;;;;;;16.80;13.50;;;;;;;;;;6198486;28;20233;-68
2022/03/01 10:40:47;;;;;;;16.13;14.43;;;;;;;;;;6197080;28;20252;-68
2022/03/01 10:44:13;;;;;;;16.17;14.43;;;;;;;;;;6199111;28;20237;-67
2022/03/01 10:47:35;;;;;;;13.60;12.07;;;;;;;;;;6197663;28;21015;-68
2022/03/01 10:51:01;;;;;;;15.30;12.63;;;;;;;;;;6201084;28;20221;-66
2022/03/01 10:54:26;;;;;;;15.83;13.33;;;;;;;;;;6201827;28;20237;-68
2022/03/01 10:57:57;;;;;;;17.47;15.53;;;;;;;;;;6207322;28;20237;-67
2022/03/01 11:01:18;;;;;;;18.23;13.17;;;;;;;;;;6201543;28;20286;-67
2022/03/01 11:04:40;;;;;;;14.67;13.17;;;;;;;;;;6199055;28;20221;-68
2022/03/01 11:08:04;;;;;;;19.47;14.90;;;;;;;;;;6199156;28;20232;-68
2022/03/01 11:11:26;;;;;;;15.97;13.77;;;;;;;;;;6195375;28;20256;-68
2022/03/01 11:14:57;;;;;;;15.70;13.93;;;;;;;;;;6197203;28;20232;-68
2022/03/01 11:18:28;;;;;;;18.85;15.00;;;;;;;;;;6205227;28;20257;-68
2022/03/01 11:21:51;;;;;;;14.68;12.82;;;;;;;;;;6203160;28;20232;-67
2022/03/01 11:25:19;;;;;;;16.65;14.93;;;;;;;;;;6205060;28;20256;-68
2022/03/01 11:28:45;;;;;;;15.80;14.23;;;;;;;;;;6201991;28;20229;-67
2022/03/01 11:32:12;;;;;;;16.53;14.83;;;;;;;;;;6202452;28;20229;-67
2022/03/01 11:35:34;;;;;;;16.53;14.60;;;;;;;;;;6203184;28;20337;-69
2022/03/01 11:39:08;;;;;;;18.53;14.40;;;;;;;;;;6188941;28;20261;-69
2022/03/01 11:42:32;;;;;;;15.47;13.87;;;;;;;;;;6193210;28;20385;-69
2022/03/01 11:45:55;;;;;;;16.63;14.33;;;;;;;;;;6194287;28;20221;-66
2022/03/01 11:49:17;;;;;;;15.20;13.07;;;;;;;;;;6200973;28;20245;-68
2022/03/01 11:52:50;;;;;;;16.77;14.93;;;;;;;;;;6191002;28;20241;-70
2022/03/01 11:56:13;;;;;;;16.57;14.37;;;;;;;;;;6201798;28;20229;-69
2022/03/01 11:59:37;;;;;;;16.13;14.43;;;;;;;;;;6200945;28;22046;-67
2022/03/01 12:02:59;;;;;;;15.10;13.50;;;;;;;;;;6202189;28;20245;-68
2022/03/01 12:06:21;;;;;;;14.50;13.07;;;;;;;;;;6203031;28;20241;-68
2022/03/01 12:09:42;;;;;;;14.27;12.88;;;;;;;;;;6200127;28;20264;-68
2022/03/01 12:13:07;;;;;;;16.67;14.50;;;;;;;;;;6198995;28;20232;-69
2022/03/01 12:16:29;;;;;;;16.97;14.23;;;;;;;;;;6197208;28;20225;-68
2022/03/01 12:19:59;;;;;;;14.20;12.77;;;;;;;;;;6203528;28;20256;-68
2022/03/01 12:23:25;;;;;;;16.43;14.77;;;;;;;;;;6197673;28;20237;-70
2022/03/01 12:26:49;;;;;;;18.60;15.23;;;;;;;;;;6193596;28;20244;-69
2022/03/01 12:30:12;;;;;;;17.43;15.53;;;;;;;;;;6202162;28;20233;-68
2022/03/01 12:33:33;;;;;;;15.13;13.53;;;;;;;;;;6187161;28;20236;-70
2022/03/01 12:36:55;;;;;;;15.07;13.53;;;;;;;;;;6197634;28;20233;-69
2022/03/01 12:40:26;;;;;;;17.30;14.70;;;;;;;;;;6201842;28;21036;-68
2022/03/01 12:43:52;;;;;;;15.77;14.03;;;;;;;;;;6203461;28;20237;-68
2022/03/01 12:47:14;;;;;;;16.23;13.73;;;;;;;;;;6198345;28;20237;-69
2022/03/01 12:50:35;;;;;;;18.27;14.93;;;;;;;;;;6201369;28;20241;-73
2022/03/01 12:53:58;;;;;;;18.27;13.63;;;;;;;;;;6205170;28;20260;-69
2022/03/01 12:57:19;;;;;;;15.43;12.93;;;;;;;;;;6202608;28;20244;-69
2022/03/01 13:00:39;;;;;;;17.10;14.67;;;;;;;;;;6202050;28;20240;-70
2022/03/01 13:04:02;;;;;;;18.20;13.73;;;;;;;;;;6207794;28;20265;-70
2022/03/01 13:07:29;;;;;;;19.37;16.13;;;;;;;;;;6211023;28;20229;-70
2022/03/01 13:10:54;;;;;;;18.27;14.50;;;;;;;;;;6208758;28;20607;-70
2022/03/01 13:14:16;;;;;;;18.80;15.40;;;;;;;;;;6209508;28;20229;-70
2022/03/01 13:17:37;;;;;;;15.83;12.50;;;;;;;;;;6198366;28;20260;-69
2022/03/01 13:21:00;;;;;;;18.53;15.20;;;;;;;;;;6199187;28;20237;-71
2022/03/01 13:24:23;;;;;;;17.93;14.67;;;;;;;;;;6204905;28;20273;-71
2022/03/01 13:27:49;;;;;;;17.23;13.77;;;;;;;;;;6203630;28;20225;-71
2022/03/01 13:31:20;;;;;;;15.73;14.03;;;;;;;;;;6198940;28;20225;-70
2022/03/01 13:34:42;;;;;;;19.00;14.93;;;;;;;;;;6204998;28;20316;-70
2022/03/01 13:38:06;;;;;;;18.13;14.97;;;;;;;;;;6207152;28;20238;-69
2022/03/01 13:41:28;;;;;;;19.07;14.70;;;;;;;;;;6206527;28;20237;-69
2022/03/01 13:44:51;;;;;;;16.47;13.10;;;;;;;;;;6201937;28;20237;-69
2022/03/01 13:48:15;;;;;;;17.53;15.47;;;;;;;;;;6203953;28;20233;-69
2022/03/01 13:51:36;;;;;;;18.33;16.40;;;;;;;;;;6210988;28;20252;-70
2022/03/01 13:55:03;;;;;;;16.63;13.13;;;;;;;;;;6194013;28;20241;-69
2022/03/01 13:58:26;;;;;;;14.97;13.27;;;;;;;;;;6201095;28;20241;-69
2022/03/01 14:01:48;;;;;;;16.90;14.17;;;;;;;;;;6155473;28;20234;-69
2022/03/01 14:05:10;;;;;;;15.07;13.53;;;;;;;;;;6192757;28;21561;-68
2022/03/01 14:08:32;;;;;;;15.00;13.47;;;;;;;;;;6201875;28;20225;-70
2022/03/01 14:11:56;;;;;;;16.40;12.97;;;;;;;;;;6208196;28;20676;-71
2022/03/01 14:15:17;;;;;;;17.43;15.63;;;;;;;;;;6203146;28;20233;-71
2022/03/01 14:18:40;;;;;;;17.20;14.43;;;;;;;;;;6212359;28;20579;-69
2022/03/01 14:22:00;;;;;;;19.23;15.53;;;;;;;;;;6209500;28;20264;-70
2022/03/01 14:25:22;;;;;;;15.47;13.33;;;;;;;;;;6208353;28;20234;-69
2022/03/01 14:28:55;;;;;;;18.27;13.60;;;;;;;;;;6204545;28;20619;-70
2022/03/01 14:32:16;;;;;;;15.43;12.77;;;;;;;;;;6204889;28;20528;-69
2022/03/01 14:35:38;;;;;;;17.60;13.97;;;;;;;;;;6205348;28;20236;-70
2022/03/01 14:38:59;;;;;;;16.70;13.30;;;;;;;;;;6209140;28;20233;-69
2022/03/01 14:42:20;;;;;;;17.40;15.50;;;;;;;;;;6196396;28;20237;-69
2022/03/01 14:45:43;;;;;;;15.57;13.87;;;;;;;;;;6202994;28;20237;-69
2022/03/01 14:49:03;;;;;;;15.43;13.57;;;;;;;;;;6204285;28;20264;-68
2022/03/01 14:52:24;;;;;;;16.10;13.23;;;;;;;;;;6201894;28;20237;-70
2022/03/01 14:55:45;;;;;;;19.30;14.50;;;;;;;;;;6205524;28;20310;-70
2022/03/01 14:59:06;;;;;;;16.43;12.50;;;;;;;;;;6211387;28;20248;-68
2022/03/01 15:02:28;;;;;;;18.80;13.63;;;;;;;;;;6201906;28;20323;-68
2022/03/01 15:05:51;;;;;;;15.93;13.50;;;;;;;;;;6200099;28;20241;-67
2022/03/01 15:09:12;;;;;;;15.57;13.83;;;;;;;;;;6208800;28;20557;-69
2022/03/01 15:12:33;;;;;;;16.37;12.73;;;;;;;;;;6208163;28;20241;-69
2022/03/01 15:15:54;;;;;;;16.83;13.97;;;;;;;;;;6209205;28;20245;-69
2022/03/01 15:19:17;;;;;;;17.30;14.33;;;;;;;;;;6208460;28;20224;-69
2022/03/01 15:22:38;;;;;;;16.50;13.93;;;;;;;;;;6215504;28;20264;-69
2022/03/01 15:25:59;;;;;;;15.33;12.30;;;;;;;;;;6206278;28;20241;-70
2022/03/01 15:29:19;;;;;;;15.53;12.93;;;;;;;;;;6198626;28;20580;-70
2022/03/01 15:32:41;;;;;;;18.83;13.70;;;;;;;;;;6185722;28;20352;-70
2022/03/01 15:36:04;;;;;;;18.73;15.43;;;;;;;;;;6187396;28;20242;-69
2022/03/01 15:39:26;;;;;;;18.83;13.07;;;;;;;;;;6188161;28;20241;-69
2022/03/01 15:42:47;;;;;;;17.57;15.00;;;;;;;;;;6186750;28;20230;-69
2022/03/01 15:46:08;;;;;;;14.27;12.63;;;;;;;;;;6182327;28;22185;-68
2022/03/01 15:49:29;;;;;;;14.40;12.87;;;;;;;;;;6180795;28;20550;-68
2022/03/01 15:52:51;;;;;;;15.67;13.47;;;;;;;;;;6184163;28;20549;-69
2022/03/01 15:56:12;;;;;;;16.87;14.20;;;;;;;;;;6162582;28;20233;-70
2022/03/01 15:59:33;;;;;;;15.33;13.73;;;;;;;;;;6179385;28;20244;-69
2022/03/01 16:02:54;;;;;;;16.10;13.10;;;;;;;;;;6175237;28;20247;-69
2022/03/01 16:06:15;;;;;;;16.90;13.97;;;;;;;;;;6175812;28;20242;-69
2022/03/01 16:09:37;;;;;;;19.20;14.50;;;;;;;;;;6180947;28;20242;-69
2022/03/01 16:12:58;;;;;;;17.33;13.43;;;;;;;;;;6178969;28;20249;-70
2022/03/01 16:16:19;;;;;;;15.17;13.03;;;;;;;;;;6179829;28;20242;-70
2022/03/01 16:19:40;;;;;;;15.47;13.53;;;;;;;;;;6179011;28;20238;-68
2022/03/01 16:23:01;;;;;;;15.93;13.57;;;;;;;;;;6179576;28;20241;-70
2022/03/01 16:26:23;;;;;;;16.27;13.23;;;;;;;;;;6182141;28;20336;-70
2022/03/01 16:29:44;;;;;;;14.67;13.07;;;;;;;;;;6189824;28;20232;-69
2022/03/01 16:33:05;;;;;;;14.83;13.33;;;;;;;;;;6200590;28;20235;-69
2022/03/01 16:36:26;;;;;;;19.10;13.90;;;;;;;;;;6201383;28;20690;-71
2022/03/01 16:39:46;;;;;;;14.87;12.47;;;;;;;;;;6203078;28;20236;-71
2022/03/01 16:43:09;;;;;;;13.53;12.13;;;;;;;;;;6204580;28;20237;-70
2022/03/01 16:46:32;;;;;;;18.23;14.67;;;;;;;;;;6201896;28;20228;-71
2022/03/01 16:49:53;;;;;;;18.90;14.67;;;;;;;;;;6209168;28;20233;-69
2022/03/01 16:53:14;;;;;;;18.07;14.63;;;;;;;;;;6204397;28;20237;-69
2022/03/01 16:56:36;;;;;;;17.20;13.27;;;;;;;;;;6209297;28;20547;-70
2022/03/01 16:59:58;;;;;;;15.40;12.53;;;;;;;;;;6204171;28;20708;-70
2022/03/01 17:03:19;;;;;;;20.53;16.43;;;;;;;;;;6202839;28;20229;-70
2022/03/01 17:06:40;;;;;;;17.97;16.07;;;;;;;;;;6201662;28;20647;-69
2022/03/01 17:10:01;;;;;;;18.57;15.80;;;;;;;;;;6203338;28;20229;-69
2022/03/01 17:13:23;;;;;;;18.07;13.73;;;;;;;;;;6204668;28;20241;-69
2022/03/01 17:16:45;;;;;;;18.23;14.33;;;;;;;;;;6207962;28;20234;-71
2022/03/01 17:20:09;;;;;;;17.13;14.47;;;;;;;;;;6209731;28;20240;-72
2022/03/01 17:23:30;;;;;;;18.13;15.13;;;;;;;;;;6208789;28;20225;-69
2022/03/01 17:26:50;;;;;;;17.40;14.57;;;;;;;;;;6204446;28;20233;-70
2022/03/01 17:30:12;;;;;;;18.33;15.20;;;;;;;;;;6203958;28;20686;-69
2022/03/01 17:33:34;;;;;;;20.07;15.93;;;;;;;;;;6192659;28;20742;-70
2022/03/01 17:36:55;;;;;;;18.43;16.47;;;;;;;;;;6203971;28;20700;-70
2022/03/01 17:40:16;;;;;;;25.50;18.67;;;;;;;;;;6202483;28;20330;-70
2022/03/01 17:43:37;;;;;;;30.47;25.63;;;;;;;;;;6201612;28;20237;-69
2022/03/01 17:46:58;;;;;;;27.73;24.63;;;;;;;;;;6206115;28;20241;-69
2022/03/01 17:50:21;;;;;;;17.43;15.67;;;;;;;;;;6215085;28;20237;-70
2022/03/01 17:53:42;;;;;;;18.83;15.50;;;;;;;;;;6212002;28;20279;-70
2022/03/01 17:57:03;;;;;;;23.80;16.87;;;;;;;;;;6209093;28;20329;-69
2022/03/01 18:00:24;;;;;;;23.73;16.83;;;;;;;;;;6206495;28;20606;-70
2022/03/01 18:03:45;;;;;;;20.53;15.83;;;;;;;;;;6195100;28;20261;-69
2022/03/01 18:07:07;;;;;;;17.50;14.83;;;;;;;;;;6211336;28;20406;-69
2022/03/01 18:10:30;;;;;;;22.53;17.17;;;;;;;;;;6203854;28;20555;-69
2022/03/01 18:13:51;;;;;;;17.53;15.53;;;;;;;;;;6201931;28;20229;-70
2022/03/01 18:17:12;;;;;;;17.33;15.50;;;;;;;;;;6196023;28;20233;-69
2022/03/01 18:20:33;;;;;;;19.60;15.27;;;;;;;;;;6193980;28;20233;-70
2022/03/01 18:23:55;;;;;;;19.20;17.13;;;;;;;;;;6191844;28;20229;-70
2022/03/01 18:27:16;;;;;;;20.70;17.00;;;;;;;;;;6203247;28;21760;-68
2022/03/01 18:30:37;;;;;;;20.47;16.97;;;;;;;;;;6179431;28;20604;-69
2022/03/01 18:33:58;;;;;;;20.57;17.07;;;;;;;;;;6173701;28;20229;-69
2022/03/01 18:37:19;;;;;;;22.33;18.03;;;;;;;;;;6175509;28;20230;-70
2022/03/01 18:40:41;;;;;;;21.63;16.60;;;;;;;;;;6184038;28;20623;-69
2022/03/01 18:44:02;;;;;;;21.20;17.03;;;;;;;;;;6177668;28;20234;-70
2022/03/01 18:47:23;;;;;;;19.77;16.33;;;;;;;;;;6180998;28;20238;-69
2022/03/01 18:50:45;;;;;;;18.70;16.67;;;;;;;;;;6181612;28;20237;-70
2022/03/01 18:54:06;;;;;;;22.57;17.20;;;;;;;;;;6186325;28;20246;-70
2022/03/01 18:57:28;;;;;;;18.60;15.20;;;;;;;;;;6185147;28;20273;-70
2022/03/01 19:00:50;;;;;;;20.53;14.63;;;;;;;;;;6179916;28;20237;-71
2022/03/01 19:04:11;;;;;;;20.50;16.63;;;;;;;;;;6187536;28;20242;-71
2022/03/01 19:07:38;;;;;;;18.70;15.60;;;;;;;;;;6184958;28;20222;-72
2022/03/01 19:10:59;;;;;;;21.17;16.83;;;;;;;;;;6179336;28;20233;-70
2022/03/01 19:14:21;;;;;;;19.33;16.03;;;;;;;;;;6163585;28;20237;-69
2022/03/01 19:17:44;;;;;;;18.33;15.93;;;;;;;;;;6186078;28;20234;-70
2022/03/01 19:21:05;;;;;;;17.67;15.73;;;;;;;;;;6185070;28;20663;-70
2022/03/01 19:24:26;;;;;;;18.80;16.20;;;;;;;;;;6185584;28;20238;-70
2022/03/01 19:27:47;;;;;;;16.40;14.70;;;;;;;;;;6183059;28;20225;-71
2022/03/01 19:31:09;;;;;;;18.37;16.07;;;;;;;;;;6186423;28;20230;-70
2022/03/01 19:34:30;;;;;;;19.10;15.27;;;;;;;;;;6186012;28;20632;-71
2022/03/01 19:37:51;;;;;;;20.43;15.20;;;;;;;;;;6172655;28;20230;-71
2022/03/01 19:41:12;;;;;;;20.10;15.23;;;;;;;;;;6177125;28;20288;-71